sensor_id;sensor_type;location;lat;lon;timestamp;temperature;humidity
12111;DHT22;6119;52.372;8.990;2023-10-31T00:00:31;14.10;99.90
12111;DHT22;6119;52.372;8.990;2023-10-31T00:03:18;14.10;99.90
12111;DHT22;6119;52.372;8.990;2023-10-31T00:06:05;14.10;99.90
12111;DHT22;6119;52.372;8.990;2023-10-31T00:08:52;14.10;99.90
12111;DHT22;6119;52.372;8.990;2023-10-31T00:11:41;14.10;99.90
12111;DHT22;6119;52.372;8.990;2023-10-31T00:14:29;14.10;99.90
12111;DHT22;6119;52.372;8.990;2023-10-31T00:17:16;14.10;99.90
12111;DHT22;6119;52.372;8.990;2023-10-31T00:20:03;14.10;99.90
12111;DHT22;6119;52.372;8.990;2023-10-31T00:22:50;14.10;99.90
12111;DHT22;6119;52.372;8.990;2023-10-31T00:25:37;14.10;99.90
12111;DHT22;6119;52.372;8.990;2023-10-31T00:28:23;14.20;99.90
12111;DHT22;6119;52.372;8.990;2023-10-31T00:31:11;14.10;99.90
12111;DHT22;6119;52.372;8.990;2023-10-31T00:33:59;14.10;99.90
12111;DHT22;6119;52.372;8.990;2023-10-31T00:36:47;14.10;99.90
12111;DHT22;6119;52.372;8.990;2023-10-31T00:39:33;14.10;99.90
12111;DHT22;6119;52.372;8.990;2023-10-31T00:42:20;14.10;99.90
12111;DHT22;6119;52.372;8.990;2023-10-31T00:45:07;14.10;99.90
12111;DHT22;6119;52.372;8.990;2023-10-31T00:47:55;14.00;99.90
12111;DHT22;6119;52.372;8.990;2023-10-31T00:50:43;14.00;99.90
12111;DHT22;6119;52.372;8.990;2023-10-31T00:53:30;14.10;99.90
12111;DHT22;6119;52.372;8.990;2023-10-31T00:56:17;14.10;99.90
12111;DHT22;6119;52.372;8.990;2023-10-31T00:59:04;14.10;99.90
12111;DHT22;6119;52.372;8.990;2023-10-31T01:01:51;14.10;99.90
12111;DHT22;6119;52.372;8.990;2023-10-31T01:04:39;14.20;99.90
12111;DHT22;6119;52.372;8.990;2023-10-31T01:07:25;14.20;99.90
12111;DHT22;6119;52.372;8.990;2023-10-31T01:10:12;14.10;99.90
12111;DHT22;6119;52.372;8.990;2023-10-31T01:12:59;14.20;99.90
12111;DHT22;6119;52.372;8.990;2023-10-31T01:15:46;14.20;99.90
12111;DHT22;6119;52.372;8.990;2023-10-31T01:18:32;14.10;99.90
12111;DHT22;6119;52.372;8.990;2023-10-31T01:21:20;14.10;99.90
12111;DHT22;6119;52.372;8.990;2023-10-31T01:24:08;14.20;99.90
12111;DHT22;6119;52.372;8.990;2023-10-31T01:26:55;14.20;99.90
12111;DHT22;6119;52.372;8.990;2023-10-31T01:29:41;14.20;99.90
12111;DHT22;6119;52.372;8.990;2023-10-31T01:32:28;14.30;99.90
12111;DHT22;6119;52.372;8.990;2023-10-31T01:35:15;14.30;99.90
12111;DHT22;6119;52.372;8.990;2023-10-31T01:38:03;14.20;99.90
12111;DHT22;6119;52.372;8.990;2023-10-31T01:40:50;14.30;99.90
12111;DHT22;6119;52.372;8.990;2023-10-31T01:43:37;14.30;99.90
12111;DHT22;6119;52.372;8.990;2023-10-31T01:46:24;14.30;99.90
12111;DHT22;6119;52.372;8.990;2023-10-31T01:49:11;14.20;99.90
12111;DHT22;6119;52.372;8.990;2023-10-31T01:51:57;14.20;99.90
12111;DHT22;6119;52.372;8.990;2023-10-31T01:54:46;14.20;99.90
12111;DHT22;6119;52.372;8.990;2023-10-31T01:57:33;14.20;99.90
12111;DHT22;6119;52.372;8.990;2023-10-31T02:00:20;14.10;99.90
12111;DHT22;6119;52.372;8.990;2023-10-31T02:03:07;14.20;99.90
12111;DHT22;6119;52.372;8.990;2023-10-31T02:05:54;14.20;99.90
12111;DHT22;6119;52.372;8.990;2023-10-31T02:08:41;14.20;99.90
12111;DHT22;6119;52.372;8.990;2023-10-31T02:11:29;14.20;99.90
12111;DHT22;6119;52.372;8.990;2023-10-31T02:14:16;14.20;99.90
12111;DHT22;6119;52.372;8.990;2023-10-31T02:17:03;14.20;99.90
12111;DHT22;6119;52.372;8.990;2023-10-31T02:19:50;14.10;99.90
12111;DHT22;6119;52.372;8.990;2023-10-31T02:22:38;14.20;99.90
12111;DHT22;6119;52.372;8.990;2023-10-31T02:25:24;14.10;99.90
12111;DHT22;6119;52.372;8.990;2023-10-31T02:28:11;14.10;99.90
12111;DHT22;6119;52.372;8.990;2023-10-31T02:30:58;14.10;99.90
12111;DHT22;6119;52.372;8.990;2023-10-31T02:33:45;14.10;99.90
12111;DHT22;6119;52.372;8.990;2023-10-31T02:36:32;14.10;99.90
12111;DHT22;6119;52.372;8.990;2023-10-31T02:39:21;14.10;99.90
12111;DHT22;6119;52.372;8.990;2023-10-31T02:42:07;14.10;99.90
12111;DHT22;6119;52.372;8.990;2023-10-31T02:44:54;14.10;99.90
12111;DHT22;6119;52.372;8.990;2023-10-31T02:47:41;14.10;99.90
12111;DHT22;6119;52.372;8.990;2023-10-31T02:50:27;12.90;99.90
12111;DHT22;6119;52.372;8.990;2023-10-31T02:53:14;14.10;99.90
12111;DHT22;6119;52.372;8.990;2023-10-31T02:56:03;13.90;99.90
12111;DHT22;6119;52.372;8.990;2023-10-31T02:58:50;14.00;99.90
12111;DHT22;6119;52.372;8.990;2023-10-31T03:01:36;13.90;99.90
12111;DHT22;6119;52.372;8.990;2023-10-31T03:04:23;13.90;99.90
12111;DHT22;6119;52.372;8.990;2023-10-31T03:07:10;13.90;99.90
12111;DHT22;6119;52.372;8.990;2023-10-31T03:09:57;13.80;99.90
12111;DHT22;6119;52.372;8.990;2023-10-31T03:12:45;13.70;99.90
12111;DHT22;6119;52.372;8.990;2023-10-31T03:15:31;13.70;99.90
12111;DHT22;6119;52.372;8.990;2023-10-31T03:18:18;13.70;99.90
12111;DHT22;6119;52.372;8.990;2023-10-31T03:21:05;13.60;99.90
12111;DHT22;6119;52.372;8.990;2023-10-31T03:23:51;13.50;99.90
12111;DHT22;6119;52.372;8.990;2023-10-31T03:26:41;13.40;99.90
12111;DHT22;6119;52.372;8.990;2023-10-31T03:29:28;13.30;99.90
12111;DHT22;6119;52.372;8.990;2023-10-31T03:32:15;13.10;99.90
12111;DHT22;6119;52.372;8.990;2023-10-31T03:35:02;13.10;99.90
12111;DHT22;6119;52.372;8.990;2023-10-31T03:37:49;12.90;99.90
12111;DHT22;6119;52.372;8.990;2023-10-31T03:40:35;13.00;99.90
12111;DHT22;6119;52.372;8.990;2023-10-31T03:43:22;12.80;99.90
12111;DHT22;6119;52.372;8.990;2023-10-31T03:46:11;12.70;99.90
12111;DHT22;6119;52.372;8.990;2023-10-31T03:48:58;12.60;99.90
12111;DHT22;6119;52.372;8.990;2023-10-31T03:51:44;12.60;99.90
12111;DHT22;6119;52.372;8.990;2023-10-31T03:54:31;12.60;99.90
12111;DHT22;6119;52.372;8.990;2023-10-31T03:57:18;12.50;99.90
12111;DHT22;6119;52.372;8.990;2023-10-31T04:00:05;12.40;99.90
12111;DHT22;6119;52.372;8.990;2023-10-31T04:02:54;12.30;99.90
12111;DHT22;6119;52.372;8.990;2023-10-31T04:05:42;12.20;99.90
12111;DHT22;6119;52.372;8.990;2023-10-31T04:08:28;12.20;99.90
12111;DHT22;6119;52.372;8.990;2023-10-31T04:11:15;12.10;99.90
12111;DHT22;6119;52.372;8.990;2023-10-31T04:14:02;12.20;99.90
12111;DHT22;6119;52.372;8.990;2023-10-31T04:16:49;12.20;99.90
12111;DHT22;6119;52.372;8.990;2023-10-31T04:19:37;12.10;99.90
12111;DHT22;6119;52.372;8.990;2023-10-31T04:22:25;12.00;99.90
12111;DHT22;6119;52.372;8.990;2023-10-31T04:25:12;12.00;99.90
12111;DHT22;6119;52.372;8.990;2023-10-31T04:27:58;11.90;99.90
12111;DHT22;6119;52.372;8.990;2023-10-31T04:30:45;11.90;99.90
12111;DHT22;6119;52.372;8.990;2023-10-31T04:33:32;11.90;99.90
12111;DHT22;6119;52.372;8.990;2023-10-31T04:36:20;11.80;99.90
12111;DHT22;6119;52.372;8.990;2023-10-31T04:39:06;11.80;99.90
12111;DHT22;6119;52.372;8.990;2023-10-31T04:41:53;11.80;99.90
12111;DHT22;6119;52.372;8.990;2023-10-31T04:44:40;11.70;99.90
12111;DHT22;6119;52.372;8.990;2023-10-31T04:47:26;11.60;99.90
12111;DHT22;6119;52.372;8.990;2023-10-31T04:50:14;11.60;99.90
12111;DHT22;6119;52.372;8.990;2023-10-31T04:53:02;11.60;99.90
12111;DHT22;6119;52.372;8.990;2023-10-31T04:55:48;11.60;99.90
12111;DHT22;6119;52.372;8.990;2023-10-31T04:58:35;11.60;99.90
12111;DHT22;6119;52.372;8.990;2023-10-31T05:01:21;11.70;99.90
12111;DHT22;6119;52.372;8.990;2023-10-31T05:04:08;11.60;99.90
12111;DHT22;6119;52.372;8.990;2023-10-31T05:06:58;11.60;99.90
12111;DHT22;6119;52.372;8.990;2023-10-31T05:09:46;11.60;99.90
12111;DHT22;6119;52.372;8.990;2023-10-31T05:12:33;11.60;99.90
12111;DHT22;6119;52.372;8.990;2023-10-31T05:15:19;11.60;99.90
12111;DHT22;6119;52.372;8.990;2023-10-31T05:18:06;11.50;99.90
12111;DHT22;6119;52.372;8.990;2023-10-31T05:20:53;11.50;99.90
12111;DHT22;6119;52.372;8.990;2023-10-31T05:23:39;11.50;99.90
12111;DHT22;6119;52.372;8.990;2023-10-31T05:26:28;11.50;99.90
12111;DHT22;6119;52.372;8.990;2023-10-31T05:29:15;11.50;99.90
12111;DHT22;6119;52.372;8.990;2023-10-31T05:32:02;11.50;99.90
12111;DHT22;6119;52.372;8.990;2023-10-31T05:34:49;11.40;99.90
12111;DHT22;6119;52.372;8.990;2023-10-31T05:37:36;11.40;99.90
12111;DHT22;6119;52.372;8.990;2023-10-31T05:40:23;11.40;99.90
12111;DHT22;6119;52.372;8.990;2023-10-31T05:43:11;11.50;99.90
12111;DHT22;6119;52.372;8.990;2023-10-31T05:45:58;11.50;99.90
12111;DHT22;6119;52.372;8.990;2023-10-31T05:48:46;11.40;99.90
12111;DHT22;6119;52.372;8.990;2023-10-31T05:51:34;11.50;99.90
12111;DHT22;6119;52.372;8.990;2023-10-31T05:54:21;11.50;99.90
12111;DHT22;6119;52.372;8.990;2023-10-31T05:57:08;11.50;99.90
12111;DHT22;6119;52.372;8.990;2023-10-31T05:59:56;11.50;99.90
12111;DHT22;6119;52.372;8.990;2023-10-31T06:02:42;11.60;99.90
12111;DHT22;6119;52.372;8.990;2023-10-31T06:05:29;11.50;99.90
12111;DHT22;6119;52.372;8.990;2023-10-31T06:08:16;11.50;99.90
12111;DHT22;6119;52.372;8.990;2023-10-31T06:11:03;11.50;99.90
12111;DHT22;6119;52.372;8.990;2023-10-31T06:13:51;11.50;99.90
12111;DHT22;6119;52.372;8.990;2023-10-31T06:16:41;10.70;99.90
12111;DHT22;6119;52.372;8.990;2023-10-31T06:19:28;11.50;99.90
12111;DHT22;6119;52.372;8.990;2023-10-31T06:22:15;11.50;99.90
12111;DHT22;6119;52.372;8.990;2023-10-31T06:25:01;11.50;99.90
12111;DHT22;6119;52.372;8.990;2023-10-31T06:27:48;11.60;99.90
12111;DHT22;6119;52.372;8.990;2023-10-31T06:30:35;11.60;99.90
12111;DHT22;6119;52.372;8.990;2023-10-31T06:33:23;11.60;99.90
12111;DHT22;6119;52.372;8.990;2023-10-31T06:36:10;11.60;99.90
12111;DHT22;6119;52.372;8.990;2023-10-31T06:38:56;11.60;99.90
12111;DHT22;6119;52.372;8.990;2023-10-31T06:41:44;11.60;99.90
12111;DHT22;6119;52.372;8.990;2023-10-31T06:44:30;11.60;99.90
12111;DHT22;6119;52.372;8.990;2023-10-31T06:47:17;11.60;99.90
12111;DHT22;6119;52.372;8.990;2023-10-31T06:50:07;11.60;99.90
12111;DHT22;6119;52.372;8.990;2023-10-31T06:52:54;11.70;99.90
12111;DHT22;6119;52.372;8.990;2023-10-31T06:55:41;11.60;99.90
12111;DHT22;6119;52.372;8.990;2023-10-31T06:58:27;11.60;99.90
12111;DHT22;6119;52.372;8.990;2023-10-31T07:01:14;11.60;99.90
12111;DHT22;6119;52.372;8.990;2023-10-31T07:04:04;11.60;99.90
12111;DHT22;6119;52.372;8.990;2023-10-31T07:06:53;11.50;99.90
12111;DHT22;6119;52.372;8.990;2023-10-31T07:09:43;11.60;99.90
12111;DHT22;6119;52.372;8.990;2023-10-31T07:12:29;11.60;99.90
12111;DHT22;6119;52.372;8.990;2023-10-31T07:15:16;11.50;99.90
12111;DHT22;6119;52.372;8.990;2023-10-31T07:18:03;11.60;99.90
12111;DHT22;6119;52.372;8.990;2023-10-31T07:20:49;11.50;99.90
12111;DHT22;6119;52.372;8.990;2023-10-31T07:23:37;11.60;99.90
12111;DHT22;6119;52.372;8.990;2023-10-31T07:26:24;11.50;99.90
12111;DHT22;6119;52.372;8.990;2023-10-31T07:29:12;11.50;99.90
12111;DHT22;6119;52.372;8.990;2023-10-31T07:31:59;11.60;99.90
12111;DHT22;6119;52.372;8.990;2023-10-31T07:34:45;11.60;99.90
12111;DHT22;6119;52.372;8.990;2023-10-31T07:37:32;11.60;99.90
12111;DHT22;6119;52.372;8.990;2023-10-31T07:40:23;11.60;99.90
12111;DHT22;6119;52.372;8.990;2023-10-31T07:43:09;11.50;99.90
12111;DHT22;6119;52.372;8.990;2023-10-31T07:45:56;11.50;99.90
12111;DHT22;6119;52.372;8.990;2023-10-31T07:48:42;11.50;99.90
12111;DHT22;6119;52.372;8.990;2023-10-31T07:51:29;11.50;99.90
12111;DHT22;6119;52.372;8.990;2023-10-31T07:54:16;11.50;99.90
12111;DHT22;6119;52.372;8.990;2023-10-31T07:57:04;11.50;99.90
12111;DHT22;6119;52.372;8.990;2023-10-31T07:59:51;11.50;99.90
12111;DHT22;6119;52.372;8.990;2023-10-31T08:02:38;11.50;99.90
12111;DHT22;6119;52.372;8.990;2023-10-31T08:05:24;11.50;99.90
12111;DHT22;6119;52.372;8.990;2023-10-31T08:08:11;11.50;99.90
12111;DHT22;6119;52.372;8.990;2023-10-31T08:10:57;11.60;99.90
12111;DHT22;6119;52.372;8.990;2023-10-31T08:13:45;11.70;99.90
12111;DHT22;6119;52.372;8.990;2023-10-31T08:16:32;11.80;99.90
12111;DHT22;6119;52.372;8.990;2023-10-31T08:19:20;11.80;99.90
12111;DHT22;6119;52.372;8.990;2023-10-31T08:22:07;11.70;99.90
12111;DHT22;6119;52.372;8.990;2023-10-31T08:24:53;11.80;99.90
12111;DHT22;6119;52.372;8.990;2023-10-31T08:27:40;11.90;99.90
12111;DHT22;6119;52.372;8.990;2023-10-31T08:30:28;11.90;99.90
12111;DHT22;6119;52.372;8.990;2023-10-31T08:33:15;11.80;99.90
12111;DHT22;6119;52.372;8.990;2023-10-31T08:36:03;11.90;99.90
12111;DHT22;6119;52.372;8.990;2023-10-31T08:38:52;11.90;99.90
12111;DHT22;6119;52.372;8.990;2023-10-31T08:41:49;11.90;99.90
12111;DHT22;6119;52.372;8.990;2023-10-31T08:44:36;12.00;99.90
12111;DHT22;6119;52.372;8.990;2023-10-31T08:47:25;12.00;99.90
12111;DHT22;6119;52.372;8.990;2023-10-31T08:50:13;12.10;99.90
12111;DHT22;6119;52.372;8.990;2023-10-31T08:53:00;12.10;99.90
12111;DHT22;6119;52.372;8.990;2023-10-31T08:55:47;12.20;99.90
12111;DHT22;6119;52.372;8.990;2023-10-31T08:58:34;12.20;99.90
12111;DHT22;6119;52.372;8.990;2023-10-31T09:01:20;12.20;99.90
12111;DHT22;6119;52.372;8.990;2023-10-31T09:04:09;12.10;99.90
12111;DHT22;6119;52.372;8.990;2023-10-31T09:06:56;12.20;99.90
12111;DHT22;6119;52.372;8.990;2023-10-31T09:09:42;12.40;99.90
12111;DHT22;6119;52.372;8.990;2023-10-31T09:12:29;12.30;99.90
12111;DHT22;6119;52.372;8.990;2023-10-31T09:15:18;12.30;99.90
12111;DHT22;6119;52.372;8.990;2023-10-31T09:18:06;12.30;99.90
12111;DHT22;6119;52.372;8.990;2023-10-31T09:20:54;12.30;99.90
12111;DHT22;6119;52.372;8.990;2023-10-31T09:23:41;12.40;99.90
12111;DHT22;6119;52.372;8.990;2023-10-31T09:26:27;12.30;99.90
12111;DHT22;6119;52.372;8.990;2023-10-31T09:29:14;12.30;99.90
12111;DHT22;6119;52.372;8.990;2023-10-31T09:32:14;12.50;99.90
12111;DHT22;6119;52.372;8.990;2023-10-31T09:35:01;12.40;99.90
12111;DHT22;6119;52.372;8.990;2023-10-31T09:37:50;12.30;99.90
12111;DHT22;6119;52.372;8.990;2023-10-31T09:40:37;12.40;99.90
12111;DHT22;6119;52.372;8.990;2023-10-31T09:43:24;12.30;99.90
12111;DHT22;6119;52.372;8.990;2023-10-31T09:46:11;12.40;99.90
12111;DHT22;6119;52.372;8.990;2023-10-31T09:48:58;12.50;99.90
12111;DHT22;6119;52.372;8.990;2023-10-31T09:51:46;12.40;99.90
12111;DHT22;6119;52.372;8.990;2023-10-31T09:54:36;12.50;99.90
12111;DHT22;6119;52.372;8.990;2023-10-31T09:57:23;12.50;99.90
12111;DHT22;6119;52.372;8.990;2023-10-31T10:00:12;12.50;99.90
12111;DHT22;6119;52.372;8.990;2023-10-31T10:02:59;12.60;99.90
12111;DHT22;6119;52.372;8.990;2023-10-31T10:05:46;12.50;99.90
12111;DHT22;6119;52.372;8.990;2023-10-31T10:08:37;12.50;99.90
12111;DHT22;6119;52.372;8.990;2023-10-31T10:11:25;12.50;99.90
12111;DHT22;6119;52.372;8.990;2023-10-31T10:14:12;12.40;99.90
12111;DHT22;6119;52.372;8.990;2023-10-31T10:16:59;12.50;99.90
12111;DHT22;6119;52.372;8.990;2023-10-31T10:19:46;12.40;99.90
12111;DHT22;6119;52.372;8.990;2023-10-31T10:22:36;12.50;99.90
12111;DHT22;6119;52.372;8.990;2023-10-31T10:25:24;12.40;99.90
12111;DHT22;6119;52.372;8.990;2023-10-31T10:28:19;12.50;99.90
12111;DHT22;6119;52.372;8.990;2023-10-31T10:31:06;12.50;99.90
12111;DHT22;6119;52.372;8.990;2023-10-31T10:33:53;12.50;99.90
12111;DHT22;6119;52.372;8.990;2023-10-31T10:36:40;12.60;99.90
12111;DHT22;6119;52.372;8.990;2023-10-31T10:39:29;12.60;99.90
12111;DHT22;6119;52.372;8.990;2023-10-31T10:42:24;12.60;99.90
12111;DHT22;6119;52.372;8.990;2023-10-31T10:45:16;12.70;99.90
12111;DHT22;6119;52.372;8.990;2023-10-31T10:48:05;12.60;99.90
12111;DHT22;6119;52.372;8.990;2023-10-31T10:50:59;12.70;99.90
12111;DHT22;6119;52.372;8.990;2023-10-31T10:53:49;12.70;99.90
12111;DHT22;6119;52.372;8.990;2023-10-31T10:56:39;12.70;99.90
12111;DHT22;6119;52.372;8.990;2023-10-31T10:59:34;12.70;99.90
12111;DHT22;6119;52.372;8.990;2023-10-31T11:02:26;12.70;99.90
12111;DHT22;6119;52.372;8.990;2023-10-31T11:05:14;12.80;99.90
12111;DHT22;6119;52.372;8.990;2023-10-31T11:08:01;12.80;99.90
12111;DHT22;6119;52.372;8.990;2023-10-31T11:10:50;12.80;99.90
12111;DHT22;6119;52.372;8.990;2023-10-31T11:13:38;12.80;99.90
12111;DHT22;6119;52.372;8.990;2023-10-31T11:16:30;12.80;99.90
12111;DHT22;6119;52.372;8.990;2023-10-31T11:19:20;12.70;99.90
12111;DHT22;6119;52.372;8.990;2023-10-31T11:22:07;12.70;99.90
12111;DHT22;6119;52.372;8.990;2023-10-31T11:24:54;12.80;99.90
12111;DHT22;6119;52.372;8.990;2023-10-31T11:27:40;12.70;99.90
12111;DHT22;6119;52.372;8.990;2023-10-31T11:30:28;12.70;99.90
12111;DHT22;6119;52.372;8.990;2023-10-31T11:33:19;12.80;99.90
12111;DHT22;6119;52.372;8.990;2023-10-31T11:36:08;12.80;99.90
12111;DHT22;6119;52.372;8.990;2023-10-31T11:39:10;12.90;99.90
12111;DHT22;6119;52.372;8.990;2023-10-31T11:42:00;12.80;99.90
12111;DHT22;6119;52.372;8.990;2023-10-31T11:44:54;12.80;99.90
12111;DHT22;6119;52.372;8.990;2023-10-31T11:47:46;12.90;99.90
12111;DHT22;6119;52.372;8.990;2023-10-31T11:50:33;12.80;99.90
12111;DHT22;6119;52.372;8.990;2023-10-31T11:53:21;12.90;99.90
12111;DHT22;6119;52.372;8.990;2023-10-31T11:56:10;12.90;99.90
12111;DHT22;6119;52.372;8.990;2023-10-31T11:58:58;12.90;99.90
12111;DHT22;6119;52.372;8.990;2023-10-31T12:01:45;12.90;99.90
12111;DHT22;6119;52.372;8.990;2023-10-31T12:04:33;12.90;99.90
12111;DHT22;6119;52.372;8.990;2023-10-31T12:07:20;13.10;99.90
12111;DHT22;6119;52.372;8.990;2023-10-31T12:10:08;13.00;99.90
12111;DHT22;6119;52.372;8.990;2023-10-31T12:12:56;13.10;99.90
12111;DHT22;6119;52.372;8.990;2023-10-31T12:15:51;13.10;99.90
12111;DHT22;6119;52.372;8.990;2023-10-31T12:18:39;13.20;99.90
12111;DHT22;6119;52.372;8.990;2023-10-31T12:21:38;13.30;99.90
12111;DHT22;6119;52.372;8.990;2023-10-31T12:24:26;13.20;99.90
12111;DHT22;6119;52.372;8.990;2023-10-31T12:27:15;13.30;99.90
12111;DHT22;6119;52.372;8.990;2023-10-31T12:30:02;13.30;99.90
12111;DHT22;6119;52.372;8.990;2023-10-31T12:32:54;13.30;99.90
12111;DHT22;6119;52.372;8.990;2023-10-31T12:35:41;13.30;99.90
12111;DHT22;6119;52.372;8.990;2023-10-31T12:38:28;13.30;99.90
12111;DHT22;6119;52.372;8.990;2023-10-31T12:41:15;13.30;99.90
12111;DHT22;6119;52.372;8.990;2023-10-31T12:44:06;13.40;99.90
12111;DHT22;6119;52.372;8.990;2023-10-31T12:46:55;13.30;99.90
12111;DHT22;6119;52.372;8.990;2023-10-31T12:49:42;13.30;99.90
12111;DHT22;6119;52.372;8.990;2023-10-31T12:52:45;13.20;99.90
12111;DHT22;6119;52.372;8.990;2023-10-31T12:55:38;13.10;99.90
12111;DHT22;6119;52.372;8.990;2023-10-31T12:58:24;13.00;99.90
12111;DHT22;6119;52.372;8.990;2023-10-31T13:01:12;13.10;99.90
12111;DHT22;6119;52.372;8.990;2023-10-31T13:03:59;13.00;99.90
12111;DHT22;6119;52.372;8.990;2023-10-31T13:06:55;13.00;99.90
12111;DHT22;6119;52.372;8.990;2023-10-31T13:09:42;13.00;99.90
12111;DHT22;6119;52.372;8.990;2023-10-31T13:12:30;13.00;99.90
12111;DHT22;6119;52.372;8.990;2023-10-31T13:15:18;13.00;99.90
12111;DHT22;6119;52.372;8.990;2023-10-31T13:18:06;13.10;99.90
12111;DHT22;6119;52.372;8.990;2023-10-31T13:20:57;13.00;99.90
12111;DHT22;6119;52.372;8.990;2023-10-31T13:23:44;13.10;99.90
12111;DHT22;6119;52.372;8.990;2023-10-31T13:26:33;13.20;99.90
12111;DHT22;6119;52.372;8.990;2023-10-31T13:29:19;13.10;99.90
12111;DHT22;6119;52.372;8.990;2023-10-31T13:32:07;13.10;99.90
12111;DHT22;6119;52.372;8.990;2023-10-31T13:34:56;13.10;99.90
12111;DHT22;6119;52.372;8.990;2023-10-31T13:37:43;13.00;99.90
12111;DHT22;6119;52.372;8.990;2023-10-31T13:40:29;13.00;99.90
12111;DHT22;6119;52.372;8.990;2023-10-31T13:43:16;13.00;99.90
12111;DHT22;6119;52.372;8.990;2023-10-31T13:46:03;13.10;99.90
12111;DHT22;6119;52.372;8.990;2023-10-31T13:48:50;13.10;99.90
12111;DHT22;6119;52.372;8.990;2023-10-31T13:51:38;13.10;99.90
12111;DHT22;6119;52.372;8.990;2023-10-31T13:54:25;13.10;99.90
12111;DHT22;6119;52.372;8.990;2023-10-31T13:57:12;13.10;99.90
12111;DHT22;6119;52.372;8.990;2023-10-31T13:59:59;13.10;99.90
12111;DHT22;6119;52.372;8.990;2023-10-31T14:02:46;13.20;99.90
12111;DHT22;6119;52.372;8.990;2023-10-31T14:05:33;13.30;99.90
12111;DHT22;6119;52.372;8.990;2023-10-31T14:08:22;13.30;99.90
12111;DHT22;6119;52.372;8.990;2023-10-31T14:11:08;13.20;99.90
12111;DHT22;6119;52.372;8.990;2023-10-31T14:13:55;13.20;99.90
12111;DHT22;6119;52.372;8.990;2023-10-31T14:16:46;13.20;99.90
12111;DHT22;6119;52.372;8.990;2023-10-31T14:19:34;13.10;99.90
12111;DHT22;6119;52.372;8.990;2023-10-31T14:22:22;12.70;99.90
12111;DHT22;6119;52.372;8.990;2023-10-31T14:25:10;12.50;99.90
12111;DHT22;6119;52.372;8.990;2023-10-31T14:27:57;12.40;99.90
12111;DHT22;6119;52.372;8.990;2023-10-31T14:30:44;12.30;99.90
12111;DHT22;6119;52.372;8.990;2023-10-31T14:33:30;12.30;99.90
12111;DHT22;6119;52.372;8.990;2023-10-31T14:36:17;12.10;99.90
12111;DHT22;6119;52.372;8.990;2023-10-31T14:39:04;12.20;99.90
12111;DHT22;6119;52.372;8.990;2023-10-31T14:41:53;12.10;99.90
12111;DHT22;6119;52.372;8.990;2023-10-31T14:44:40;12.10;99.90
12111;DHT22;6119;52.372;8.990;2023-10-31T14:47:27;12.10;99.90
12111;DHT22;6119;52.372;8.990;2023-10-31T14:50:13;12.10;99.90
12111;DHT22;6119;52.372;8.990;2023-10-31T14:53:00;12.20;99.90
12111;DHT22;6119;52.372;8.990;2023-10-31T14:55:47;12.10;99.90
12111;DHT22;6119;52.372;8.990;2023-10-31T14:58:35;12.20;99.90
12111;DHT22;6119;52.372;8.990;2023-10-31T15:01:22;12.20;99.90
12111;DHT22;6119;52.372;8.990;2023-10-31T15:04:09;12.10;99.90
12111;DHT22;6119;52.372;8.990;2023-10-31T15:06:56;12.20;99.90
12111;DHT22;6119;52.372;8.990;2023-10-31T15:09:43;12.30;99.90
12111;DHT22;6119;52.372;8.990;2023-10-31T15:12:29;12.10;99.90
12111;DHT22;6119;52.372;8.990;2023-10-31T15:15:17;12.00;99.90
12111;DHT22;6119;52.372;8.990;2023-10-31T15:18:04;12.10;99.90
12111;DHT22;6119;52.372;8.990;2023-10-31T15:20:51;12.00;99.90
12111;DHT22;6119;52.372;8.990;2023-10-31T15:23:40;12.10;99.90
12111;DHT22;6119;52.372;8.990;2023-10-31T15:26:26;12.10;99.90
12111;DHT22;6119;52.372;8.990;2023-10-31T15:29:15;12.20;99.90
12111;DHT22;6119;52.372;8.990;2023-10-31T15:32:03;12.20;99.90
12111;DHT22;6119;52.372;8.990;2023-10-31T15:34:50;12.20;99.90
12111;DHT22;6119;52.372;8.990;2023-10-31T15:37:37;12.10;99.90
12111;DHT22;6119;52.372;8.990;2023-10-31T15:40:24;12.00;99.90
12111;DHT22;6119;52.372;8.990;2023-10-31T15:43:11;12.00;99.90
12111;DHT22;6119;52.372;8.990;2023-10-31T15:45:57;12.10;99.90
12111;DHT22;6119;52.372;8.990;2023-10-31T15:48:46;12.10;99.90
12111;DHT22;6119;52.372;8.990;2023-10-31T15:51:32;12.00;99.90
12111;DHT22;6119;52.372;8.990;2023-10-31T15:54:19;12.00;99.90
12111;DHT22;6119;52.372;8.990;2023-10-31T15:57:07;12.10;99.90
12111;DHT22;6119;52.372;8.990;2023-10-31T15:59:54;12.10;99.90
12111;DHT22;6119;52.372;8.990;2023-10-31T16:02:40;12.10;99.90
12111;DHT22;6119;52.372;8.990;2023-10-31T16:05:29;12.10;99.90
12111;DHT22;6119;52.372;8.990;2023-10-31T16:08:18;12.20;99.90
12111;DHT22;6119;52.372;8.990;2023-10-31T16:11:05;12.10;99.90
12111;DHT22;6119;52.372;8.990;2023-10-31T16:13:52;12.20;99.90
12111;DHT22;6119;52.372;8.990;2023-10-31T16:16:38;12.20;99.90
12111;DHT22;6119;52.372;8.990;2023-10-31T16:19:25;12.10;99.90
12111;DHT22;6119;52.372;8.990;2023-10-31T16:22:13;12.00;99.90
12111;DHT22;6119;52.372;8.990;2023-10-31T16:25:00;12.00;99.90
12111;DHT22;6119;52.372;8.990;2023-10-31T16:27:46;12.00;99.90
12111;DHT22;6119;52.372;8.990;2023-10-31T16:30:33;12.00;99.90
12111;DHT22;6119;52.372;8.990;2023-10-31T16:33:20;12.10;99.90
12111;DHT22;6119;52.372;8.990;2023-10-31T16:36:07;12.00;99.90
12111;DHT22;6119;52.372;8.990;2023-10-31T16:38:55;12.10;99.90
12111;DHT22;6119;52.372;8.990;2023-10-31T16:41:43;12.10;99.90
12111;DHT22;6119;52.372;8.990;2023-10-31T16:44:29;12.10;99.90
12111;DHT22;6119;52.372;8.990;2023-10-31T16:47:16;12.10;99.90
12111;DHT22;6119;52.372;8.990;2023-10-31T16:50:04;12.10;99.90
12111;DHT22;6119;52.372;8.990;2023-10-31T16:52:51;12.10;99.90
12111;DHT22;6119;52.372;8.990;2023-10-31T16:55:39;12.10;99.90
12111;DHT22;6119;52.372;8.990;2023-10-31T16:58:26;12.00;99.90
12111;DHT22;6119;52.372;8.990;2023-10-31T17:01:14;12.10;99.90
12111;DHT22;6119;52.372;8.990;2023-10-31T17:04:00;12.00;99.90
12111;DHT22;6119;52.372;8.990;2023-10-31T17:06:47;12.10;99.90
12111;DHT22;6119;52.372;8.990;2023-10-31T17:09:34;12.10;99.90
12111;DHT22;6119;52.372;8.990;2023-10-31T17:12:22;12.10;99.90
12111;DHT22;6119;52.372;8.990;2023-10-31T17:15:09;12.10;99.90
12111;DHT22;6119;52.372;8.990;2023-10-31T17:17:56;12.10;99.90
12111;DHT22;6119;52.372;8.990;2023-10-31T17:20:43;12.10;99.90
12111;DHT22;6119;52.372;8.990;2023-10-31T17:23:30;12.20;99.90
12111;DHT22;6119;52.372;8.990;2023-10-31T17:26:17;12.20;99.90
12111;DHT22;6119;52.372;8.990;2023-10-31T17:29:05;12.00;99.90
12111;DHT22;6119;52.372;8.990;2023-10-31T17:31:51;12.10;99.90
12111;DHT22;6119;52.372;8.990;2023-10-31T17:34:38;12.10;99.90
12111;DHT22;6119;52.372;8.990;2023-10-31T17:37:24;12.20;99.90
12111;DHT22;6119;52.372;8.990;2023-10-31T17:40:12;12.10;99.90
12111;DHT22;6119;52.372;8.990;2023-10-31T17:42:59;12.10;99.90
12111;DHT22;6119;52.372;8.990;2023-10-31T17:45:47;12.10;99.90
12111;DHT22;6119;52.372;8.990;2023-10-31T17:48:34;12.20;99.90
12111;DHT22;6119;52.372;8.990;2023-10-31T17:51:20;12.10;99.90
12111;DHT22;6119;52.372;8.990;2023-10-31T17:54:07;12.20;99.90